createdAt,value
2022-11-29T00:02:26.244Z,20.10
2022-11-29T00:05:27.921Z,20.40
2022-11-29T00:08:29.332Z,20.80
2022-11-29T00:11:47.591Z,20.50
2022-11-29T00:14:49.029Z,20.10
2022-11-29T00:17:50.843Z,20.50
2022-11-29T00:20:52.132Z,20.10
2022-11-29T00:23:53.616Z,20.50
2022-11-29T00:26:54.958Z,20.40
2022-11-29T00:29:56.305Z,20.30
2022-11-29T00:32:58.188Z,20.60
2022-11-29T00:36:00.506Z,20.60
2022-11-29T00:39:02.574Z,20.40
2022-11-29T00:42:04.003Z,20.40
2022-11-29T00:45:05.701Z,20.50
2022-11-29T00:48:07.573Z,20.40
2022-11-29T00:51:09.042Z,20.10
2022-11-29T00:54:10.332Z,20.50
2022-11-29T00:57:11.619Z,20.10
2022-11-29T01:00:13.316Z,20.40
2022-11-29T01:03:15.883Z,20.20
2022-11-29T01:06:17.655Z,20.10
2022-11-29T01:09:19.123Z,20.40
2022-11-29T01:12:20.452Z,20.40
2022-11-29T01:15:21.810Z,20.00
2022-11-29T01:18:24.089Z,20.40
2022-11-29T01:21:25.615Z,20.30
2022-11-29T01:24:27.974Z,20.20
2022-11-29T01:27:29.513Z,20.10
2022-11-29T01:30:30.840Z,20.10
2022-11-29T01:33:32.894Z,20.50
2022-11-29T01:36:34.602Z,20.70
2022-11-29T01:39:35.853Z,20.40
2022-11-29T01:42:37.203Z,20.50
2022-11-29T01:45:38.837Z,20.40
2022-11-29T01:48:40.706Z,20.30
2022-11-29T01:51:44.858Z,20.10
2022-11-29T01:54:47.555Z,20.40
2022-11-29T01:57:49.021Z,20.00
2022-11-29T02:00:50.254Z,20.50
2022-11-29T02:03:52.604Z,19.80
2022-11-29T02:06:53.989Z,20.50
2022-11-29T02:09:55.293Z,20.70
2022-11-29T02:13:00.545Z,20.50
2022-11-29T02:16:04.139Z,20.40
2022-11-29T02:19:18.176Z,20.40
2022-11-29T02:22:22.923Z,20.00
2022-11-29T02:25:34.423Z,20.30
2022-11-29T02:28:44.576Z,20.30
2022-11-29T02:32:05.588Z,20.50
2022-11-29T02:35:17.347Z,20.10
2022-11-29T02:38:29.398Z,20.40
2022-11-29T02:41:38.793Z,21.10
2022-11-29T02:44:47.279Z,20.50
2022-11-29T02:47:54.743Z,20.00
2022-11-29T02:51:01.065Z,20.40
2022-11-29T02:54:07.444Z,20.00
2022-11-29T02:57:17.499Z,20.20
2022-11-29T03:00:20.317Z,20.40
2022-11-29T03:03:23.626Z,20.40
2022-11-29T03:06:30.400Z,20.30
2022-11-29T03:09:36.301Z,20.10
2022-11-29T03:12:39.352Z,20.20
2022-11-29T03:15:43.528Z,20.10
2022-11-29T03:18:50.281Z,20.00
2022-11-29T03:21:58.925Z,20.30
2022-11-29T03:25:02.703Z,20.10
2022-11-29T03:28:06.545Z,20.40
2022-11-29T03:31:13.156Z,20.00
2022-11-29T03:34:17.076Z,20.10
2022-11-29T03:37:21.344Z,20.50
2022-11-29T03:40:25.760Z,20.30
2022-11-29T03:43:30.074Z,20.20
2022-11-29T03:46:34.622Z,20.30
2022-11-29T03:49:39.511Z,20.30
2022-11-29T03:52:45.905Z,20.40
2022-11-29T03:55:49.794Z,20.30
2022-11-29T03:58:54.234Z,20.30
2022-11-29T04:02:03.319Z,20.30
2022-11-29T04:05:12.931Z,20.30
2022-11-29T04:08:26.900Z,20.30
2022-11-29T04:11:53.853Z,20.30
2022-11-29T04:15:15.856Z,20.00
2022-11-29T04:18:29.320Z,19.90
2022-11-29T04:21:33.166Z,20.40
2022-11-29T04:24:49.284Z,20.20
2022-11-29T04:28:04.101Z,19.90
2022-11-29T04:31:11.291Z,20.30
2022-11-29T04:34:20.408Z,19.90
2022-11-29T04:37:30.031Z,20.50
2022-11-29T04:40:36.178Z,20.50
2022-11-29T04:43:52.196Z,20.30
2022-11-29T04:46:59.910Z,20.10
2022-11-29T04:50:12.624Z,20.10
2022-11-29T04:53:25.158Z,20.10
2022-11-29T04:56:30.697Z,20.00
2022-11-29T04:59:37.958Z,20.40
2022-11-29T05:02:41.378Z,20.20
2022-11-29T05:05:46.322Z,20.00
2022-11-29T05:08:52.155Z,20.10
2022-11-29T05:11:58.243Z,20.60
2022-11-29T05:15:13.688Z,20.40
2022-11-29T05:18:18.068Z,20.00
2022-11-29T05:21:24.967Z,20.50
2022-11-29T05:24:30.735Z,20.00
2022-11-29T05:27:42.296Z,20.10
2022-11-29T05:30:53.251Z,20.00
2022-11-29T05:34:05.146Z,20.30
2022-11-29T05:37:13.084Z,20.70
2022-11-29T05:40:29.872Z,20.50
2022-11-29T05:43:42.562Z,19.90
2022-11-29T05:46:49.136Z,20.10
2022-11-29T05:49:55.231Z,20.00
2022-11-29T05:52:59.906Z,20.40
2022-11-29T05:56:05.207Z,20.60
2022-11-29T05:59:08.735Z,20.20
2022-11-29T06:02:18.875Z,20.10
2022-11-29T06:05:24.113Z,20.30
2022-11-29T06:08:31.663Z,20.10
2022-11-29T06:11:34.950Z,20.30
2022-11-29T06:14:45.894Z,20.90
2022-11-29T06:17:56.960Z,20.40
2022-11-29T06:21:01.864Z,20.00
2022-11-29T06:24:15.597Z,20.40
2022-11-29T06:27:24.190Z,19.70
2022-11-29T06:30:26.914Z,20.40
2022-11-29T06:33:33.314Z,20.50
2022-11-29T06:36:37.828Z,20.00
2022-11-29T06:39:39.311Z,20.60
2022-11-29T06:42:40.640Z,20.30
2022-11-29T06:45:47.104Z,20.20
2022-11-29T06:48:51.117Z,20.00
2022-11-29T06:51:57.682Z,20.40
2022-11-29T06:55:03.680Z,20.40
2022-11-29T06:58:09.983Z,20.60
2022-11-29T07:01:18.516Z,20.50
2022-11-29T07:04:28.326Z,20.70
2022-11-29T07:07:30.538Z,20.40
2022-11-29T07:10:33.580Z,20.50
2022-11-29T07:13:36.129Z,20.30
2022-11-29T07:16:43.203Z,20.50
2022-11-29T07:19:52.366Z,20.10
2022-11-29T07:23:02.481Z,20.30
2022-11-29T07:26:09.344Z,20.60
2022-11-29T07:29:22.667Z,20.50
2022-11-29T07:32:29.261Z,20.50
2022-11-29T07:35:37.716Z,20.70
2022-11-29T07:38:49.522Z,20.30
2022-11-29T07:41:57.297Z,21.00
2022-11-29T07:45:05.144Z,20.70
2022-11-29T07:48:07.518Z,21.10
2022-11-29T07:51:09.931Z,20.30
2022-11-29T07:54:14.337Z,21.00
2022-11-29T07:57:15.733Z,20.80
2022-11-29T08:00:17.827Z,20.60
2022-11-29T08:03:19.834Z,20.70
2022-11-29T08:06:24.797Z,21.20
2022-11-29T08:09:27.154Z,20.80
2022-11-29T08:12:30.197Z,21.30
2022-11-29T08:15:31.655Z,21.00
2022-11-29T08:18:33.008Z,21.10
2022-11-29T08:21:34.942Z,20.30
2022-11-29T08:24:36.682Z,20.90
2022-11-29T08:27:38.517Z,20.90
2022-11-29T08:30:39.984Z,21.30
2022-11-29T08:33:43.412Z,20.50
2022-11-29T08:36:45.474Z,21.10
2022-11-29T08:39:46.827Z,20.90
2022-11-29T08:42:48.761Z,21.40
2022-11-29T08:45:54.369Z,20.90
2022-11-29T08:48:56.123Z,21.10
2022-11-29T08:52:12.837Z,20.90
2022-11-29T08:55:14.353Z,21.50
2022-11-29T08:58:16.445Z,21.00
2022-11-29T09:01:19.215Z,21.20
2022-11-29T09:04:20.847Z,21.30
2022-11-29T09:07:23.138Z,21.20
2022-11-29T09:10:24.665Z,21.10
2022-11-29T09:13:26.228Z,21.50
2022-11-29T09:16:28.793Z,21.10
2022-11-29T09:19:30.226Z,21.70
2022-11-29T09:22:32.077Z,21.30
2022-11-29T09:25:33.506Z,21.40
2022-11-29T09:28:35.417Z,21.20
2022-11-29T09:31:37.428Z,21.60
2022-11-29T09:34:39.333Z,21.30
2022-11-29T09:37:42.189Z,21.70
2022-11-29T09:40:47.870Z,21.30
2022-11-29T09:43:54.867Z,21.70
2022-11-29T09:46:59.619Z,20.90
2022-11-29T09:50:08.819Z,21.40
2022-11-29T09:53:18.467Z,21.10
2022-11-29T09:56:24.949Z,21.60
2022-11-29T09:59:28.359Z,20.80
2022-11-29T10:02:32.996Z,21.70
2022-11-29T10:05:37.742Z,23.60
2022-11-29T10:08:41.413Z,21.70
2022-11-29T10:11:47.012Z,21.40
2022-11-29T10:14:49.836Z,21.50
2022-11-29T10:17:53.384Z,21.30
2022-11-29T10:20:57.860Z,21.50
2022-11-29T10:24:02.407Z,21.00
2022-11-29T10:27:08.458Z,21.30
2022-11-29T10:30:13.244Z,21.70
2022-11-29T10:33:16.828Z,21.60
2022-11-29T10:36:21.694Z,21.20
2022-11-29T10:39:29.441Z,21.90
2022-11-29T10:42:46.055Z,21.50
2022-11-29T10:45:50.625Z,21.50
2022-11-29T10:48:52.442Z,21.50
2022-11-29T10:51:53.933Z,21.40
2022-11-29T10:54:57.338Z,22.00
2022-11-29T10:58:11.244Z,21.20
2022-11-29T11:01:13.319Z,21.20
2022-11-29T11:04:16.807Z,21.70
2022-11-29T11:07:22.206Z,21.50
2022-11-29T11:10:27.546Z,21.10
2022-11-29T11:13:30.501Z,21.70
2022-11-29T11:16:37.139Z,21.40
2022-11-29T11:19:39.168Z,21.00
2022-11-29T11:22:40.858Z,20.80
2022-11-29T11:25:42.741Z,21.30
2022-11-29T11:28:48.729Z,21.50
2022-11-29T11:31:51.955Z,21.20
2022-11-29T11:34:55.105Z,21.50
2022-11-29T11:37:56.735Z,21.60
2022-11-29T11:41:15.059Z,21.70
2022-11-29T11:44:45.917Z,21.60
2022-11-29T11:47:43.683Z,21.90
2022-11-29T11:50:49.346Z,21.60
2022-11-29T11:53:52.647Z,22.10
2022-11-29T11:56:54.709Z,21.50
2022-11-29T12:00:00.728Z,21.90
2022-11-29T12:03:24.173Z,21.60
2022-11-29T12:06:31.602Z,21.80
2022-11-29T12:09:35.337Z,21.40
2022-11-29T12:12:40.347Z,21.50
2022-11-29T12:15:44.236Z,21.20
2022-11-29T12:18:48.085Z,21.40
2022-11-29T12:21:52.317Z,21.30
2022-11-29T12:24:57.100Z,21.50
2022-11-29T12:27:59.699Z,21.50
2022-11-29T12:31:05.847Z,21.60
2022-11-29T12:34:22.424Z,21.10
2022-11-29T12:37:26.609Z,21.80
2022-11-29T12:40:31.909Z,21.20
2022-11-29T12:43:44.301Z,22.00
2022-11-29T12:46:48.766Z,21.90
2022-11-29T12:49:53.595Z,21.80
2022-11-29T12:53:02.134Z,21.30
2022-11-29T12:56:10.712Z,21.00
2022-11-29T12:59:19.570Z,21.20
2022-11-29T13:02:25.548Z,21.70
2022-11-29T13:05:34.692Z,22.40
2022-11-29T13:08:44.706Z,21.80
2022-11-29T13:11:49.485Z,21.60
2022-11-29T13:14:55.878Z,21.90
2022-11-29T13:18:00.310Z,21.60
2022-11-29T13:21:05.767Z,21.50
2022-11-29T13:24:10.587Z,21.70
2022-11-29T13:27:21.947Z,22.10
2022-11-29T13:30:25.942Z,22.10
2022-11-29T13:33:31.211Z,21.70
2022-11-29T13:36:38.103Z,21.10
2022-11-29T13:39:45.684Z,21.90
2022-11-29T13:42:50.253Z,21.80
2022-11-29T13:45:55.769Z,21.90
2022-11-29T13:48:57.161Z,21.90
2022-11-29T13:52:03.657Z,21.60
2022-11-29T13:55:14.709Z,21.80
2022-11-29T13:58:31.705Z,21.10
2022-11-29T14:01:43.344Z,21.80
2022-11-29T14:04:46.010Z,21.60
2022-11-29T14:08:02.541Z,21.80
2022-11-29T14:11:06.022Z,21.20
2022-11-29T14:14:09.140Z,21.90
2022-11-29T14:17:25.305Z,21.40
2022-11-29T14:20:43.314Z,21.60
2022-11-29T14:23:45.962Z,22.00
2022-11-29T14:26:47.350Z,22.00
2022-11-29T14:29:54.093Z,22.10
2022-11-29T14:32:57.634Z,22.00
2022-11-29T14:36:03.947Z,21.80
2022-11-29T14:39:14.421Z,22.00
2022-11-29T14:42:17.786Z,22.00
2022-11-29T14:45:22.684Z,21.30
2022-11-29T14:48:25.247Z,22.00
2022-11-29T14:51:28.021Z,21.90
2022-11-29T14:54:30.130Z,21.30
2022-11-29T14:57:41.379Z,21.80
2022-11-29T15:00:59.076Z,22.30
2022-11-29T15:04:02.058Z,22.10
2022-11-29T15:07:04.095Z,21.90
2022-11-29T15:10:12.992Z,21.80
2022-11-29T15:13:17.364Z,22.40
2022-11-29T15:16:23.794Z,21.80
2022-11-29T15:19:41.992Z,22.20
2022-11-29T15:22:47.457Z,21.90
2022-11-29T15:25:50.478Z,22.30
2022-11-29T15:28:52.455Z,21.90
2022-11-29T15:31:56.116Z,22.40
2022-11-29T15:34:58.027Z,22.00
2022-11-29T15:37:59.386Z,21.60
2022-11-29T15:41:01.560Z,21.30
2022-11-29T15:44:04.884Z,22.30
2022-11-29T15:47:15.351Z,21.50
2022-11-29T15:50:24.771Z,22.40
2022-11-29T15:53:29.463Z,22.20
2022-11-29T15:56:36.533Z,22.00
2022-11-29T15:59:40.440Z,21.80
2022-11-29T16:02:47.064Z,21.60
2022-11-29T16:05:50.047Z,22.00
2022-11-29T16:08:51.713Z,21.80
2022-11-29T16:11:53.750Z,22.10
2022-11-29T16:14:56.087Z,22.00
2022-11-29T16:18:01.748Z,22.10
2022-11-29T16:21:04.154Z,22.10
2022-11-29T16:24:13.659Z,22.00
2022-11-29T16:27:15.655Z,22.30
2022-11-29T16:30:20.792Z,21.80
2022-11-29T16:33:23.700Z,22.50
2022-11-29T16:36:26.243Z,22.50
2022-11-29T16:39:28.465Z,21.20
2022-11-29T16:42:31.572Z,21.70
2022-11-29T16:45:34.161Z,22.00
2022-11-29T16:48:37.474Z,22.10
2022-11-29T16:51:44.963Z,22.20
2022-11-29T16:54:46.568Z,21.70
2022-11-29T16:57:49.003Z,22.00
2022-11-29T17:00:50.560Z,21.50
2022-11-29T17:03:52.109Z,22.20
2022-11-29T17:06:53.626Z,22.00
2022-11-29T17:09:55.401Z,22.60
2022-11-29T17:12:57.401Z,22.00
2022-11-29T17:15:58.814Z,22.50
2022-11-29T17:19:00.188Z,22.10
2022-11-29T17:22:01.717Z,22.40
2022-11-29T17:25:03.209Z,22.10
2022-11-29T17:28:05.157Z,22.40
2022-11-29T17:31:08.660Z,22.00
2022-11-29T17:34:10.127Z,22.40
2022-11-29T17:37:11.383Z,22.10
2022-11-29T17:40:14.400Z,22.20
2022-11-29T17:43:16.312Z,21.90
2022-11-29T17:46:18.810Z,22.00
2022-11-29T17:49:20.225Z,21.90
2022-11-29T17:52:21.539Z,22.40
2022-11-29T17:55:25.770Z,21.90
2022-11-29T17:58:32.217Z,22.40
2022-11-29T18:01:35.012Z,22.00
2022-11-29T18:04:36.636Z,22.00
2022-11-29T18:07:56.969Z,21.80
2022-11-29T18:11:02.226Z,22.30
2022-11-29T18:14:04.538Z,21.60
2022-11-29T18:17:06.274Z,21.70
2022-11-29T18:20:08.548Z,21.80
2022-11-29T18:23:09.803Z,21.90
2022-11-29T18:26:12.478Z,21.80
2022-11-29T18:29:14.525Z,22.30
2022-11-29T18:32:15.829Z,21.60
2022-11-29T18:35:17.127Z,21.70
2022-11-29T18:38:18.376Z,21.70
2022-11-29T18:41:21.233Z,21.90
2022-11-29T18:44:28.423Z,21.70
2022-11-29T18:47:32.100Z,21.70
2022-11-29T18:50:33.452Z,21.50
2022-11-29T18:53:35.096Z,21.80
2022-11-29T18:56:36.474Z,21.60
2022-11-29T18:59:38.368Z,22.10
2022-11-29T19:02:39.673Z,21.60
2022-11-29T19:05:48.874Z,21.60
2022-11-29T19:08:51.182Z,21.30
2022-11-29T19:11:52.453Z,21.90
2022-11-29T19:14:54.787Z,21.40
2022-11-29T19:17:56.489Z,21.50
2022-11-29T19:21:02.953Z,21.50
2022-11-29T19:24:06.771Z,21.70
2022-11-29T19:27:08.124Z,21.50
2022-11-29T19:30:10.713Z,21.40
2022-11-29T19:33:12.681Z,21.10
2022-11-29T19:36:14.999Z,21.10
2022-11-29T19:39:16.525Z,21.40
2022-11-29T19:42:17.861Z,20.80
2022-11-29T19:45:21.112Z,21.00
2022-11-29T19:48:22.459Z,21.50
2022-11-29T19:51:24.188Z,21.50
2022-11-29T19:54:25.461Z,21.00
2022-11-29T19:57:27.520Z,21.40
2022-11-29T20:00:30.027Z,21.60
2022-11-29T20:03:31.554Z,21.40
2022-11-29T20:06:32.828Z,21.90
2022-11-29T20:09:34.117Z,21.00
2022-11-29T20:12:35.431Z,21.80
2022-11-29T20:15:37.364Z,21.00
2022-11-29T20:18:39.987Z,20.90
2022-11-29T20:21:42.636Z,21.00
2022-11-29T20:24:45.544Z,21.50
2022-11-29T20:27:47.074Z,21.30
2022-11-29T20:30:49.011Z,21.20
2022-11-29T20:33:51.628Z,21.40
2022-11-29T20:37:05.945Z,21.60
2022-11-29T20:40:09.233Z,20.90
2022-11-29T20:43:12.989Z,21.30
2022-11-29T20:46:15.570Z,20.70
2022-11-29T20:49:17.389Z,21.20
2022-11-29T20:52:26.496Z,20.80
2022-11-29T20:55:27.741Z,21.20
2022-11-29T20:58:29.875Z,21.20
2022-11-29T21:01:31.924Z,21.10
2022-11-29T21:04:33.192Z,20.90
2022-11-29T21:07:34.507Z,21.20
2022-11-29T21:10:35.938Z,20.80
2022-11-29T21:13:37.520Z,21.10
2022-11-29T21:16:39.644Z,20.70
2022-11-29T21:19:41.214Z,20.60
2022-11-29T21:22:46.481Z,20.90
2022-11-29T21:25:52.411Z,20.50
2022-11-29T21:28:59.372Z,20.90
2022-11-29T21:32:02.168Z,21.20
2022-11-29T21:35:03.631Z,20.80
2022-11-29T21:38:05.599Z,21.00
2022-11-29T21:41:06.946Z,20.90
2022-11-29T21:44:08.734Z,20.40
2022-11-29T21:47:11.003Z,20.80
2022-11-29T21:50:12.641Z,21.00
2022-11-29T21:53:14.242Z,20.90
2022-11-29T21:56:15.587Z,20.80
2022-11-29T21:59:17.168Z,20.60
2022-11-29T22:02:19.231Z,20.90
2022-11-29T22:05:20.778Z,20.40
2022-11-29T22:08:22.086Z,20.30
2022-11-29T22:11:30.196Z,20.80
2022-11-29T22:14:31.473Z,21.10
2022-11-29T22:17:33.466Z,20.60
2022-11-29T22:20:34.788Z,21.00
2022-11-29T22:23:36.141Z,20.70
2022-11-29T22:26:37.992Z,20.90
2022-11-29T22:29:39.362Z,20.30
2022-11-29T22:32:41.208Z,20.10
2022-11-29T22:35:42.690Z,20.70
2022-11-29T22:38:43.962Z,20.60
2022-11-29T22:41:50.676Z,20.40
2022-11-29T22:44:55.061Z,20.80
2022-11-29T22:47:57.366Z,20.40
2022-11-29T22:51:02.811Z,20.20
2022-11-29T22:54:04.901Z,20.70
2022-11-29T22:57:06.165Z,21.00
2022-11-29T23:00:08.852Z,20.50
2022-11-29T23:03:10.872Z,20.90
2022-11-29T23:06:13.229Z,20.50
2022-11-29T23:09:15.387Z,20.70
2022-11-29T23:12:16.722Z,20.70
2022-11-29T23:15:17.997Z,20.20
2022-11-29T23:18:19.969Z,20.40
2022-11-29T23:21:22.877Z,20.50
2022-11-29T23:24:24.513Z,20.60
2022-11-29T23:27:25.809Z,20.70
2022-11-29T23:30:27.244Z,20.20
2022-11-29T23:33:29.139Z,21.10
2022-11-29T23:36:30.946Z,20.30
2022-11-29T23:39:32.254Z,20.70
2022-11-29T23:42:33.521Z,20.60
2022-11-29T23:45:35.449Z,20.80
2022-11-29T23:48:37.447Z,20.60
2022-11-29T23:51:38.780Z,20.60
2022-11-29T23:54:40.028Z,20.50
2022-11-29T23:57:41.523Z,20.10
